Anderson, Texas
Current Conditions -  °F | °C
As of 12:53 PM on Tuesday 27 Jan 2015 (Local Time) from KCLL Reporting Station
Clear Clear  
Wind Chill: 23°   Ceiling: Unl
Heat Index: 23°   Visibility: 10mi
Dew Point:   Wind: 0mph
Humidity: 33%   Direction: NA
Pressure: 30.15"   Gusts: NA
Location:  30.49°N, 95.99°W
Report Text: KCLL 271853Z 00000KT 10SM CLR 23/06 A3015 RMK AO2 SLP206 T02280056
Loading
Personal Weather Stations






























Interactive Weather Map New forecast layout! Learn more

10-Day Weather Forecast

Advertisements
Track Severe Weather on mobile